sensor_id;sensor_type;location;lat;lon;timestamp;temperature;humidity
69436;SHT31;56625;54.322;18.582;2022-11-15T00:01:06;7.49;85.83
69436;SHT31;56625;54.322;18.582;2022-11-15T00:03:41;7.47;85.86
69436;SHT31;56625;54.322;18.582;2022-11-15T00:06:08;7.45;85.99
69436;SHT31;56625;54.322;18.582;2022-11-15T00:08:35;7.47;86.03
69436;SHT31;56625;54.322;18.582;2022-11-15T00:11:02;7.49;85.90
69436;SHT31;56625;54.322;18.582;2022-11-15T00:13:29;7.50;85.87
69436;SHT31;56625;54.322;18.582;2022-11-15T00:15:57;7.52;85.93
69436;SHT31;56625;54.322;18.582;2022-11-15T00:18:26;7.48;85.96
69436;SHT31;56625;54.322;18.582;2022-11-15T00:20:53;7.44;86.09
69436;SHT31;56625;54.322;18.582;2022-11-15T00:23:19;7.45;86.23
69436;SHT31;56625;54.322;18.582;2022-11-15T00:25:46;7.45;86.23
69436;SHT31;56625;54.322;18.582;2022-11-15T00:28:12;7.45;86.23
69436;SHT31;56625;54.322;18.582;2022-11-15T00:30:39;7.41;86.26
69436;SHT31;56625;54.322;18.582;2022-11-15T00:33:06;7.43;86.40
69436;SHT31;56625;54.322;18.582;2022-11-15T00:35:34;7.46;86.35
69436;SHT31;56625;54.322;18.582;2022-11-15T00:38:01;7.47;86.24
69436;SHT31;56625;54.322;18.582;2022-11-15T00:40:29;7.48;86.13
69436;SHT31;56625;54.322;18.582;2022-11-15T00:42:55;7.48;86.13
69436;SHT31;56625;54.322;18.582;2022-11-15T00:45:22;7.46;86.20
69436;SHT31;56625;54.322;18.582;2022-11-15T00:47:49;7.41;86.31
69436;SHT31;56625;54.322;18.582;2022-11-15T00:50:16;7.36;86.44
69436;SHT31;56625;54.322;18.582;2022-11-15T00:56:25;7.34;86.58
69436;SHT31;56625;54.322;18.582;2022-11-15T00:58:52;7.32;86.72
69436;SHT31;56625;54.322;18.582;2022-11-15T01:01:19;7.27;86.78
69436;SHT31;56625;54.322;18.582;2022-11-15T01:03:47;7.23;86.90
69436;SHT31;56625;54.322;18.582;2022-11-15T01:06:14;7.20;87.00
69436;SHT31;56625;54.322;18.582;2022-11-15T01:08:41;7.16;87.00
69436;SHT31;56625;54.322;18.582;2022-11-15T01:11:09;7.12;87.14
69436;SHT31;56625;54.322;18.582;2022-11-15T01:13:38;7.06;87.23
69436;SHT31;56625;54.322;18.582;2022-11-15T01:16:07;7.00;87.43
69436;SHT31;56625;54.322;18.582;2022-11-15T01:18:40;6.95;87.59
69436;SHT31;56625;54.322;18.582;2022-11-15T01:21:11;6.94;87.70
69436;SHT31;56625;54.322;18.582;2022-11-15T01:23:41;6.90;87.87
69436;SHT31;56625;54.322;18.582;2022-11-15T01:26:10;6.88;87.99
69436;SHT31;56625;54.322;18.582;2022-11-15T01:28:40;6.87;88.18
69436;SHT31;56625;54.322;18.582;2022-11-15T01:31:13;6.84;88.31
69436;SHT31;56625;54.322;18.582;2022-11-15T01:33:46;6.84;88.38
69436;SHT31;56625;54.322;18.582;2022-11-15T01:36:15;6.84;88.43
69436;SHT31;56625;54.322;18.582;2022-11-15T01:38:54;6.86;88.42
69436;SHT31;56625;54.322;18.582;2022-11-15T01:41:27;6.84;88.44
69436;SHT31;56625;54.322;18.582;2022-11-15T01:47:08;6.75;88.81
69436;SHT31;56625;54.322;18.582;2022-11-15T01:49:40;6.74;88.90
69436;SHT31;56625;54.322;18.582;2022-11-15T01:52:32;6.80;88.86
69436;SHT31;56625;54.322;18.582;2022-11-15T01:55:14;6.82;88.75
69436;SHT31;56625;54.322;18.582;2022-11-15T01:57:47;6.85;88.59
69436;SHT31;56625;54.322;18.582;2022-11-15T02:00:19;6.88;88.55
69436;SHT31;56625;54.322;18.582;2022-11-15T02:02:46;6.90;88.48
69436;SHT31;56625;54.322;18.582;2022-11-15T02:05:13;6.86;88.40
69436;SHT31;56625;54.322;18.582;2022-11-15T02:07:40;6.88;88.43
69436;SHT31;56625;54.322;18.582;2022-11-15T02:10:14;6.89;88.42
69436;SHT31;56625;54.322;18.582;2022-11-15T02:12:46;6.87;88.55
69436;SHT31;56625;54.322;18.582;2022-11-15T02:15:15;6.88;88.59
69436;SHT31;56625;54.322;18.582;2022-11-15T02:17:55;6.89;88.61
69436;SHT31;56625;54.322;18.582;2022-11-15T02:36:01;6.86;88.69
69436;SHT31;56625;54.322;18.582;2022-11-15T02:44:03;6.68;88.80
69436;SHT31;56625;54.322;18.582;2022-11-15T02:49:43;6.63;89.07
69436;SHT31;56625;54.322;18.582;2022-11-15T02:52:19;6.66;89.08
69436;SHT31;56625;54.322;18.582;2022-11-15T02:54:53;6.64;88.95
69436;SHT31;56625;54.322;18.582;2022-11-15T02:57:44;6.61;88.98
69436;SHT31;56625;54.322;18.582;2022-11-15T03:00:19;6.58;89.00
69436;SHT31;56625;54.322;18.582;2022-11-15T03:19:20;6.58;89.00
69436;SHT31;56625;54.322;18.582;2022-11-15T03:21:55;6.57;88.95
69436;SHT31;56625;54.322;18.582;2022-11-15T03:24:26;6.57;88.86
69436;SHT31;56625;54.322;18.582;2022-11-15T03:26:56;6.58;88.80
69436;SHT31;56625;54.322;18.582;2022-11-15T03:29:28;6.59;88.84
69436;SHT31;56625;54.322;18.582;2022-11-15T03:32:02;6.59;88.85
69436;SHT31;56625;54.322;18.582;2022-11-15T03:40:15;6.47;89.38
69436;SHT31;56625;54.322;18.582;2022-11-15T03:42:46;6.45;89.50
69436;SHT31;56625;54.322;18.582;2022-11-15T03:45:22;6.43;89.70
69436;SHT31;56625;54.322;18.582;2022-11-15T03:48:05;6.41;89.77
69436;SHT31;56625;54.322;18.582;2022-11-15T03:50:40;6.40;89.84
69436;SHT31;56625;54.322;18.582;2022-11-15T03:53:09;6.40;89.76
69436;SHT31;56625;54.322;18.582;2022-11-15T03:55:36;6.38;89.79
69436;SHT31;56625;54.322;18.582;2022-11-15T03:58:03;6.36;89.79
69436;SHT31;56625;54.322;18.582;2022-11-15T04:00:30;6.36;89.80
69436;SHT31;56625;54.322;18.582;2022-11-15T04:02:57;6.38;89.91
69436;SHT31;56625;54.322;18.582;2022-11-15T04:05:23;6.38;89.97
69436;SHT31;56625;54.322;18.582;2022-11-15T04:07:50;6.37;89.96
69436;SHT31;56625;54.322;18.582;2022-11-15T04:10:17;6.36;89.98
69436;SHT31;56625;54.322;18.582;2022-11-15T04:12:44;6.32;89.91
69436;SHT31;56625;54.322;18.582;2022-11-15T04:15:17;6.28;89.89
69436;SHT31;56625;54.322;18.582;2022-11-15T04:17:49;6.24;89.89
69436;SHT31;56625;54.322;18.582;2022-11-15T04:20:20;6.23;89.97
69436;SHT31;56625;54.322;18.582;2022-11-15T04:23:15;6.19;90.05
69436;SHT31;56625;54.322;18.582;2022-11-15T04:26:14;6.19;90.27
69436;SHT31;56625;54.322;18.582;2022-11-15T04:28:45;6.17;90.36
69436;SHT31;56625;54.322;18.582;2022-11-15T04:31:31;6.19;90.47
69436;SHT31;56625;54.322;18.582;2022-11-15T04:33:58;6.21;90.48
69436;SHT31;56625;54.322;18.582;2022-11-15T04:36:25;6.24;90.52
69436;SHT31;56625;54.322;18.582;2022-11-15T04:39:10;6.26;90.52
69436;SHT31;56625;54.322;18.582;2022-11-15T04:41:37;6.27;90.44
69436;SHT31;56625;54.322;18.582;2022-11-15T04:44:04;6.28;90.32
69436;SHT31;56625;54.322;18.582;2022-11-15T04:46:30;6.31;90.22
69436;SHT31;56625;54.322;18.582;2022-11-15T04:48:57;6.32;90.17
69436;SHT31;56625;54.322;18.582;2022-11-15T04:51:25;6.34;90.09
69436;SHT31;56625;54.322;18.582;2022-11-15T04:53:51;6.33;90.03
69436;SHT31;56625;54.322;18.582;2022-11-15T04:56:18;6.33;90.01
69436;SHT31;56625;54.322;18.582;2022-11-15T04:58:45;6.34;90.04
69436;SHT31;56625;54.322;18.582;2022-11-15T05:01:15;6.37;90.05
69436;SHT31;56625;54.322;18.582;2022-11-15T05:03:42;6.37;89.98
69436;SHT31;56625;54.322;18.582;2022-11-15T05:06:28;6.38;89.96
69436;SHT31;56625;54.322;18.582;2022-11-15T05:08:56;6.38;89.91
69436;SHT31;56625;54.322;18.582;2022-11-15T05:11:24;6.41;89.87
69436;SHT31;56625;54.322;18.582;2022-11-15T05:13:51;6.42;89.80
69436;SHT31;56625;54.322;18.582;2022-11-15T05:16:18;6.47;89.78
69436;SHT31;56625;54.322;18.582;2022-11-15T05:18:44;6.50;89.63
69436;SHT31;56625;54.322;18.582;2022-11-15T05:21:12;6.52;89.60
69436;SHT31;56625;54.322;18.582;2022-11-15T05:23:40;6.50;89.48
69436;SHT31;56625;54.322;18.582;2022-11-15T05:26:08;6.51;89.47
69436;SHT31;56625;54.322;18.582;2022-11-15T05:28:36;6.52;89.36
69436;SHT31;56625;54.322;18.582;2022-11-15T05:31:04;6.50;89.04
69436;SHT31;56625;54.322;18.582;2022-11-15T05:33:42;6.49;89.08
69436;SHT31;56625;54.322;18.582;2022-11-15T05:36:15;6.50;89.10
69436;SHT31;56625;54.322;18.582;2022-11-15T05:38:58;6.49;89.20
69436;SHT31;56625;54.322;18.582;2022-11-15T05:41:26;6.48;89.14
69436;SHT31;56625;54.322;18.582;2022-11-15T05:44:05;6.45;89.10
69436;SHT31;56625;54.322;18.582;2022-11-15T05:46:36;6.40;89.16
69436;SHT31;56625;54.322;18.582;2022-11-15T05:49:07;6.39;89.19
69436;SHT31;56625;54.322;18.582;2022-11-15T05:51:39;6.36;89.15
69436;SHT31;56625;54.322;18.582;2022-11-15T05:54:10;6.33;89.00
69436;SHT31;56625;54.322;18.582;2022-11-15T05:56:37;6.29;89.05
69436;SHT31;56625;54.322;18.582;2022-11-15T05:59:05;6.27;89.13
69436;SHT31;56625;54.322;18.582;2022-11-15T06:01:34;6.28;89.20
69436;SHT31;56625;54.322;18.582;2022-11-15T06:04:00;6.30;89.21
69436;SHT31;56625;54.322;18.582;2022-11-15T06:06:27;6.37;89.29
69436;SHT31;56625;54.322;18.582;2022-11-15T06:08:55;6.42;89.06
69436;SHT31;56625;54.322;18.582;2022-11-15T06:11:22;6.41;88.92
69436;SHT31;56625;54.322;18.582;2022-11-15T06:13:48;6.43;88.94
69436;SHT31;56625;54.322;18.582;2022-11-15T06:16:15;6.44;88.93
69436;SHT31;56625;54.322;18.582;2022-11-15T06:18:42;6.42;88.98
69436;SHT31;56625;54.322;18.582;2022-11-15T06:21:09;6.41;89.03
69436;SHT31;56625;54.322;18.582;2022-11-15T06:23:35;6.41;89.13
69436;SHT31;56625;54.322;18.582;2022-11-15T06:26:02;6.40;89.23
69436;SHT31;56625;54.322;18.582;2022-11-15T06:28:30;6.39;89.26
69436;SHT31;56625;54.322;18.582;2022-11-15T06:31:05;6.40;89.37
69436;SHT31;56625;54.322;18.582;2022-11-15T06:33:35;6.38;89.33
69436;SHT31;56625;54.322;18.582;2022-11-15T06:36:02;6.35;89.27
69436;SHT31;56625;54.322;18.582;2022-11-15T06:38:31;6.35;89.30
69436;SHT31;56625;54.322;18.582;2022-11-15T06:41:02;6.35;89.18
69436;SHT31;56625;54.322;18.582;2022-11-15T06:43:30;6.34;88.97
69436;SHT31;56625;54.322;18.582;2022-11-15T06:45:58;6.36;88.90
69436;SHT31;56625;54.322;18.582;2022-11-15T06:48:27;6.36;88.69
69436;SHT31;56625;54.322;18.582;2022-11-15T06:50:56;6.37;88.59
69436;SHT31;56625;54.322;18.582;2022-11-15T06:53:25;6.37;88.50
69436;SHT31;56625;54.322;18.582;2022-11-15T06:55:53;6.38;88.50
69436;SHT31;56625;54.322;18.582;2022-11-15T06:58:24;6.39;88.49
69436;SHT31;56625;54.322;18.582;2022-11-15T07:00:50;6.42;88.49
69436;SHT31;56625;54.322;18.582;2022-11-15T07:03:17;6.45;88.44
69436;SHT31;56625;54.322;18.582;2022-11-15T07:05:50;6.46;88.29
69436;SHT31;56625;54.322;18.582;2022-11-15T07:08:19;6.45;88.24
69436;SHT31;56625;54.322;18.582;2022-11-15T07:10:47;6.48;88.35
69436;SHT31;56625;54.322;18.582;2022-11-15T07:13:14;6.47;88.31
69436;SHT31;56625;54.322;18.582;2022-11-15T07:15:40;6.48;88.39
69436;SHT31;56625;54.322;18.582;2022-11-15T07:18:07;6.48;88.33
69436;SHT31;56625;54.322;18.582;2022-11-15T07:20:33;6.49;88.20
69436;SHT31;56625;54.322;18.582;2022-11-15T07:23:01;6.50;88.08
69436;SHT31;56625;54.322;18.582;2022-11-15T07:25:30;6.49;87.97
69436;SHT31;56625;54.322;18.582;2022-11-15T07:27:57;6.48;87.99
69436;SHT31;56625;54.322;18.582;2022-11-15T07:30:26;6.47;88.00
69436;SHT31;56625;54.322;18.582;2022-11-15T07:32:54;6.43;87.93
69436;SHT31;56625;54.322;18.582;2022-11-15T07:35:26;6.45;87.96
69436;SHT31;56625;54.322;18.582;2022-11-15T07:37:59;6.43;87.91
69436;SHT31;56625;54.322;18.582;2022-11-15T07:40:28;6.43;87.93
69436;SHT31;56625;54.322;18.582;2022-11-15T07:43:01;6.45;88.00
69436;SHT31;56625;54.322;18.582;2022-11-15T07:45:30;6.48;87.90
69436;SHT31;56625;54.322;18.582;2022-11-15T07:48:00;6.51;87.90
69436;SHT31;56625;54.322;18.582;2022-11-15T07:50:27;6.56;87.96
69436;SHT31;56625;54.322;18.582;2022-11-15T07:52:58;6.72;88.16
69436;SHT31;56625;54.322;18.582;2022-11-15T07:55:26;6.87;88.01
69436;SHT31;56625;54.322;18.582;2022-11-15T07:58:02;6.98;87.49
69436;SHT31;56625;54.322;18.582;2022-11-15T08:00:32;6.99;86.70
69436;SHT31;56625;54.322;18.582;2022-11-15T08:05:42;6.91;86.37
69436;SHT31;56625;54.322;18.582;2022-11-15T08:08:15;6.88;86.42
69436;SHT31;56625;54.322;18.582;2022-11-15T08:10:42;6.95;86.85
69436;SHT31;56625;54.322;18.582;2022-11-15T08:13:10;7.20;88.55
69436;SHT31;56625;54.322;18.582;2022-11-15T08:15:39;8.06;91.75
69436;SHT31;56625;54.322;18.582;2022-11-15T08:18:06;8.64;86.71
69436;SHT31;56625;54.322;18.582;2022-11-15T08:20:37;8.35;83.86
69436;SHT31;56625;54.322;18.582;2022-11-15T08:23:05;8.04;83.80
69436;SHT31;56625;54.322;18.582;2022-11-15T08:25:33;7.88;84.52
69436;SHT31;56625;54.322;18.582;2022-11-15T08:28:02;7.66;83.81
69436;SHT31;56625;54.322;18.582;2022-11-15T08:30:35;7.42;84.29
69436;SHT31;56625;54.322;18.582;2022-11-15T08:33:10;7.24;84.76
69436;SHT31;56625;54.322;18.582;2022-11-15T08:35:40;7.09;85.15
69436;SHT31;56625;54.322;18.582;2022-11-15T08:38:08;7.01;85.47
69436;SHT31;56625;54.322;18.582;2022-11-15T08:40:35;6.95;85.73
69436;SHT31;56625;54.322;18.582;2022-11-15T08:43:03;6.93;85.99
69436;SHT31;56625;54.322;18.582;2022-11-15T08:45:30;6.98;86.18
69436;SHT31;56625;54.322;18.582;2022-11-15T08:47:57;6.97;85.88
69436;SHT31;56625;54.322;18.582;2022-11-15T08:50:27;6.94;85.85
69436;SHT31;56625;54.322;18.582;2022-11-15T08:52:54;6.95;86.00
69436;SHT31;56625;54.322;18.582;2022-11-15T08:55:21;6.93;85.95
69436;SHT31;56625;54.322;18.582;2022-11-15T08:57:50;6.90;86.12
69436;SHT31;56625;54.322;18.582;2022-11-15T09:00:17;6.88;86.32
69436;SHT31;56625;54.322;18.582;2022-11-15T09:02:46;6.86;86.47
69436;SHT31;56625;54.322;18.582;2022-11-15T09:05:12;6.84;86.54
69436;SHT31;56625;54.322;18.582;2022-11-15T09:07:39;6.82;86.72
69436;SHT31;56625;54.322;18.582;2022-11-15T09:10:06;6.80;86.84
69436;SHT31;56625;54.322;18.582;2022-11-15T09:12:33;6.78;86.84
69436;SHT31;56625;54.322;18.582;2022-11-15T09:14:59;6.74;86.79
69436;SHT31;56625;54.322;18.582;2022-11-15T09:17:26;6.71;86.89
69436;SHT31;56625;54.322;18.582;2022-11-15T09:19:52;6.71;86.98
69436;SHT31;56625;54.322;18.582;2022-11-15T09:22:19;6.72;87.07
69436;SHT31;56625;54.322;18.582;2022-11-15T09:24:46;6.74;87.10
69436;SHT31;56625;54.322;18.582;2022-11-15T09:27:12;6.76;87.16
69436;SHT31;56625;54.322;18.582;2022-11-15T09:29:39;6.78;87.21
69436;SHT31;56625;54.322;18.582;2022-11-15T09:32:06;6.74;87.08
69436;SHT31;56625;54.322;18.582;2022-11-15T09:34:32;6.71;87.10
69436;SHT31;56625;54.322;18.582;2022-11-15T09:36:59;6.71;87.22
69436;SHT31;56625;54.322;18.582;2022-11-15T09:39:25;6.71;87.28
69436;SHT31;56625;54.322;18.582;2022-11-15T09:41:56;6.70;87.24
69436;SHT31;56625;54.322;18.582;2022-11-15T09:45:02;6.70;87.33
69436;SHT31;56625;54.322;18.582;2022-11-15T09:48:02;6.66;87.23
69436;SHT31;56625;54.322;18.582;2022-11-15T09:51:08;6.65;87.29
69436;SHT31;56625;54.322;18.582;2022-11-15T09:53:52;6.65;87.31
69436;SHT31;56625;54.322;18.582;2022-11-15T09:56:50;6.63;87.28
69436;SHT31;56625;54.322;18.582;2022-11-15T09:59:55;6.62;87.30
69436;SHT31;56625;54.322;18.582;2022-11-15T10:03:10;6.63;87.40
69436;SHT31;56625;54.322;18.582;2022-11-15T10:05:44;6.62;87.30
69436;SHT31;56625;54.322;18.582;2022-11-15T10:10:47;6.67;87.26
69436;SHT31;56625;54.322;18.582;2022-11-15T10:13:47;6.71;87.18
69436;SHT31;56625;54.322;18.582;2022-11-15T10:19:20;6.85;87.38
69436;SHT31;56625;54.322;18.582;2022-11-15T10:27:29;7.18;86.15
69436;SHT31;56625;54.322;18.582;2022-11-15T10:29:56;7.11;85.90
69436;SHT31;56625;54.322;18.582;2022-11-15T10:32:22;7.10;86.21
69436;SHT31;56625;54.322;18.582;2022-11-15T10:34:49;7.21;86.43
69436;SHT31;56625;54.322;18.582;2022-11-15T10:37:29;7.24;85.78
69436;SHT31;56625;54.322;18.582;2022-11-15T10:43:04;7.29;85.68
69436;SHT31;56625;54.322;18.582;2022-11-15T10:45:45;7.36;85.35
69436;SHT31;56625;54.322;18.582;2022-11-15T10:50:40;7.52;85.21
69436;SHT31;56625;54.322;18.582;2022-11-15T10:53:27;7.53;84.81
69436;SHT31;56625;54.322;18.582;2022-11-15T10:56:03;7.57;84.83
69436;SHT31;56625;54.322;18.582;2022-11-15T10:58:37;7.61;84.80
69436;SHT31;56625;54.322;18.582;2022-11-15T11:03:45;7.73;84.47
69436;SHT31;56625;54.322;18.582;2022-11-15T11:06:27;7.75;84.30
69436;SHT31;56625;54.322;18.582;2022-11-15T11:11:24;7.76;84.15
69436;SHT31;56625;54.322;18.582;2022-11-15T11:14:19;7.76;84.09
69436;SHT31;56625;54.322;18.582;2022-11-15T11:16:59;7.76;84.08
69436;SHT31;56625;54.322;18.582;2022-11-15T11:25:18;7.81;83.78
69436;SHT31;56625;54.322;18.582;2022-11-15T11:31:18;7.91;83.86
69436;SHT31;56625;54.322;18.582;2022-11-15T11:34:04;8.02;83.73
69436;SHT31;56625;54.322;18.582;2022-11-15T11:40:30;7.95;82.98
69436;SHT31;56625;54.322;18.582;2022-11-15T11:43:16;7.89;83.29
69436;SHT31;56625;54.322;18.582;2022-11-15T11:49:01;7.91;83.26
69436;SHT31;56625;54.322;18.582;2022-11-15T11:51:38;7.86;83.28
69436;SHT31;56625;54.322;18.582;2022-11-15T11:57:28;7.82;83.58
69436;SHT31;56625;54.322;18.582;2022-11-15T12:00:22;7.80;83.47
69436;SHT31;56625;54.322;18.582;2022-11-15T12:05:59;7.63;83.92
69436;SHT31;56625;54.322;18.582;2022-11-15T12:08:47;7.65;84.28
69436;SHT31;56625;54.322;18.582;2022-11-15T12:11:29;7.69;84.20
69436;SHT31;56625;54.322;18.582;2022-11-15T12:14:17;7.70;84.16
69436;SHT31;56625;54.322;18.582;2022-11-15T12:17:00;7.67;84.24
69436;SHT31;56625;54.322;18.582;2022-11-15T12:19:26;7.67;84.49
69436;SHT31;56625;54.322;18.582;2022-11-15T12:25:07;7.72;84.59
69436;SHT31;56625;54.322;18.582;2022-11-15T12:27:46;7.75;84.56
69436;SHT31;56625;54.322;18.582;2022-11-15T12:30:45;7.74;84.50
69436;SHT31;56625;54.322;18.582;2022-11-15T12:33:28;7.74;84.72
69436;SHT31;56625;54.322;18.582;2022-11-15T12:41:31;7.71;84.72
69436;SHT31;56625;54.322;18.582;2022-11-15T12:44:01;7.69;84.98
69436;SHT31;56625;54.322;18.582;2022-11-15T12:49:09;7.68;84.95
69436;SHT31;56625;54.322;18.582;2022-11-15T12:59:53;7.75;85.39
69436;SHT31;56625;54.322;18.582;2022-11-15T13:02:34;7.74;84.95
69436;SHT31;56625;54.322;18.582;2022-11-15T13:10:29;7.67;85.40
69436;SHT31;56625;54.322;18.582;2022-11-15T13:13:03;7.62;85.62
69436;SHT31;56625;54.322;18.582;2022-11-15T13:18:32;7.53;85.86
69436;SHT31;56625;54.322;18.582;2022-11-15T13:21:04;7.46;85.99
69436;SHT31;56625;54.322;18.582;2022-11-15T13:24:15;7.38;86.29
69436;SHT31;56625;54.322;18.582;2022-11-15T13:26:43;7.32;86.44
69436;SHT31;56625;54.322;18.582;2022-11-15T13:29:19;7.26;86.62
69436;SHT31;56625;54.322;18.582;2022-11-15T13:31:46;7.24;86.83
69436;SHT31;56625;54.322;18.582;2022-11-15T13:39:48;7.25;87.11
69436;SHT31;56625;54.322;18.582;2022-11-15T13:42:16;7.24;86.95
69436;SHT31;56625;54.322;18.582;2022-11-15T13:44:56;7.23;87.07
69436;SHT31;56625;54.322;18.582;2022-11-15T13:47:27;7.19;86.91
69436;SHT31;56625;54.322;18.582;2022-11-15T13:49:58;7.18;87.11
69436;SHT31;56625;54.322;18.582;2022-11-15T13:52:28;7.17;87.16
69436;SHT31;56625;54.322;18.582;2022-11-15T13:55:02;7.18;87.16
69436;SHT31;56625;54.322;18.582;2022-11-15T13:57:43;7.18;87.12
69436;SHT31;56625;54.322;18.582;2022-11-15T14:03:24;7.15;87.30
69436;SHT31;56625;54.322;18.582;2022-11-15T14:08:39;7.18;87.53
69436;SHT31;56625;54.322;18.582;2022-11-15T14:11:09;7.20;87.19
69436;SHT31;56625;54.322;18.582;2022-11-15T14:13:57;7.12;87.08
69436;SHT31;56625;54.322;18.582;2022-11-15T14:16:53;7.02;87.40
69436;SHT31;56625;54.322;18.582;2022-11-15T14:24:42;6.92;87.91
69436;SHT31;56625;54.322;18.582;2022-11-15T14:27:25;6.97;88.21
69436;SHT31;56625;54.322;18.582;2022-11-15T14:29:55;7.03;88.27
69436;SHT31;56625;54.322;18.582;2022-11-15T14:32:22;7.05;88.04
69436;SHT31;56625;54.322;18.582;2022-11-15T14:34:58;6.98;87.69
69436;SHT31;56625;54.322;18.582;2022-11-15T14:37:31;6.92;87.83
69436;SHT31;56625;54.322;18.582;2022-11-15T14:40:01;6.91;88.06
69436;SHT31;56625;54.322;18.582;2022-11-15T14:42:30;6.94;88.15
69436;SHT31;56625;54.322;18.582;2022-11-15T14:44:57;6.92;88.04
69436;SHT31;56625;54.322;18.582;2022-11-15T14:47:24;6.93;88.25
69436;SHT31;56625;54.322;18.582;2022-11-15T14:49:51;6.95;88.23
69436;SHT31;56625;54.322;18.582;2022-11-15T14:54:58;6.90;88.06
69436;SHT31;56625;54.322;18.582;2022-11-15T14:57:28;6.91;88.20
69436;SHT31;56625;54.322;18.582;2022-11-15T14:59:56;6.91;88.10
69436;SHT31;56625;54.322;18.582;2022-11-15T15:02:24;6.88;88.04
69436;SHT31;56625;54.322;18.582;2022-11-15T15:04:53;6.89;88.08
69436;SHT31;56625;54.322;18.582;2022-11-15T15:07:19;6.88;88.05
69436;SHT31;56625;54.322;18.582;2022-11-15T15:09:47;6.92;88.20
69436;SHT31;56625;54.322;18.582;2022-11-15T15:12:18;6.97;88.25
69436;SHT31;56625;54.322;18.582;2022-11-15T15:14:48;7.00;87.99
69436;SHT31;56625;54.322;18.582;2022-11-15T15:17:16;7.01;87.93
69436;SHT31;56625;54.322;18.582;2022-11-15T15:19:43;7.09;88.15
69436;SHT31;56625;54.322;18.582;2022-11-15T15:22:14;7.11;87.61
69436;SHT31;56625;54.322;18.582;2022-11-15T15:24:44;7.08;87.50
69436;SHT31;56625;54.322;18.582;2022-11-15T15:27:12;7.10;87.54
69436;SHT31;56625;54.322;18.582;2022-11-15T15:29:39;7.09;87.28
69436;SHT31;56625;54.322;18.582;2022-11-15T15:32:08;7.06;87.17
69436;SHT31;56625;54.322;18.582;2022-11-15T15:34:36;7.08;87.42
69436;SHT31;56625;54.322;18.582;2022-11-15T15:37:36;7.10;87.27
69436;SHT31;56625;54.322;18.582;2022-11-15T15:39:59;7.11;87.13
69436;SHT31;56625;54.322;18.582;2022-11-15T15:42:25;7.03;86.94
69436;SHT31;56625;54.322;18.582;2022-11-15T15:44:52;6.97;87.06
69436;SHT31;56625;54.322;18.582;2022-11-15T15:47:22;6.98;87.39
69436;SHT31;56625;54.322;18.582;2022-11-15T15:49:49;7.03;87.47
69436;SHT31;56625;54.322;18.582;2022-11-15T15:52:17;7.01;87.23
69436;SHT31;56625;54.322;18.582;2022-11-15T15:54:44;7.00;87.25
69436;SHT31;56625;54.322;18.582;2022-11-15T15:57:12;6.99;87.33
69436;SHT31;56625;54.322;18.582;2022-11-15T15:59:40;6.98;87.45
69436;SHT31;56625;54.322;18.582;2022-11-15T16:02:11;7.02;87.68
69436;SHT31;56625;54.322;18.582;2022-11-15T16:04:39;7.13;87.86
69436;SHT31;56625;54.322;18.582;2022-11-15T16:07:07;7.22;87.61
69436;SHT31;56625;54.322;18.582;2022-11-15T16:09:43;7.33;87.60
69436;SHT31;56625;54.322;18.582;2022-11-15T16:12:34;7.45;87.19
69436;SHT31;56625;54.322;18.582;2022-11-15T16:15:01;7.44;86.46
69436;SHT31;56625;54.322;18.582;2022-11-15T16:17:33;7.29;86.17
69436;SHT31;56625;54.322;18.582;2022-11-15T16:20:06;7.19;86.50
69436;SHT31;56625;54.322;18.582;2022-11-15T16:22:45;7.16;86.70
69436;SHT31;56625;54.322;18.582;2022-11-15T16:25:12;7.14;86.82
69436;SHT31;56625;54.322;18.582;2022-11-15T16:27:39;7.14;86.93
69436;SHT31;56625;54.322;18.582;2022-11-15T16:30:12;7.15;87.01
69436;SHT31;56625;54.322;18.582;2022-11-15T16:32:42;7.23;87.26
69436;SHT31;56625;54.322;18.582;2022-11-15T16:35:12;7.32;87.03
69436;SHT31;56625;54.322;18.582;2022-11-15T16:37:41;7.31;86.30
69436;SHT31;56625;54.322;18.582;2022-11-15T16:42:54;7.18;86.42
69436;SHT31;56625;54.322;18.582;2022-11-15T16:45:24;7.09;86.59
69436;SHT31;56625;54.322;18.582;2022-11-15T16:47:54;7.03;86.83
69436;SHT31;56625;54.322;18.582;2022-11-15T16:50:23;7.00;87.06
69436;SHT31;56625;54.322;18.582;2022-11-15T16:53:46;6.94;87.30
69436;SHT31;56625;54.322;18.582;2022-11-15T16:56:27;6.95;87.47
69436;SHT31;56625;54.322;18.582;2022-11-15T16:58:56;7.07;87.87
69436;SHT31;56625;54.322;18.582;2022-11-15T17:01:28;7.18;87.68
69436;SHT31;56625;54.322;18.582;2022-11-15T17:03:58;7.28;87.33
69436;SHT31;56625;54.322;18.582;2022-11-15T17:06:29;7.38;86.88
69436;SHT31;56625;54.322;18.582;2022-11-15T17:09:01;7.47;86.56
69436;SHT31;56625;54.322;18.582;2022-11-15T17:11:32;7.51;86.22
69436;SHT31;56625;54.322;18.582;2022-11-15T17:14:21;7.50;85.90
69436;SHT31;56625;54.322;18.582;2022-11-15T17:16:49;7.49;85.85
69436;SHT31;56625;54.322;18.582;2022-11-15T17:19:20;7.47;85.93
69436;SHT31;56625;54.322;18.582;2022-11-15T17:21:48;7.50;86.02
69436;SHT31;56625;54.322;18.582;2022-11-15T17:24:15;7.52;85.90
69436;SHT31;56625;54.322;18.582;2022-11-15T17:26:42;7.54;85.76
69436;SHT31;56625;54.322;18.582;2022-11-15T17:29:09;7.54;85.60
69436;SHT31;56625;54.322;18.582;2022-11-15T17:31:40;7.54;85.65
69436;SHT31;56625;54.322;18.582;2022-11-15T17:34:18;7.56;85.78
69436;SHT31;56625;54.322;18.582;2022-11-15T17:36:47;7.56;85.74
69436;SHT31;56625;54.322;18.582;2022-11-15T17:39:18;7.57;85.88
69436;SHT31;56625;54.322;18.582;2022-11-15T17:41:46;7.59;85.77
69436;SHT31;56625;54.322;18.582;2022-11-15T17:44:12;7.52;85.57
69436;SHT31;56625;54.322;18.582;2022-11-15T17:46:39;7.52;85.92
69436;SHT31;56625;54.322;18.582;2022-11-15T17:49:17;7.54;85.81
69436;SHT31;56625;54.322;18.582;2022-11-15T17:51:44;7.51;85.55
69436;SHT31;56625;54.322;18.582;2022-11-15T17:54:16;7.47;85.46
69436;SHT31;56625;54.322;18.582;2022-11-15T17:56:42;7.44;85.56
69436;SHT31;56625;54.322;18.582;2022-11-15T17:59:09;7.39;85.70
69436;SHT31;56625;54.322;18.582;2022-11-15T18:02:20;7.43;85.92
69436;SHT31;56625;54.322;18.582;2022-11-15T18:04:47;7.44;85.92
69436;SHT31;56625;54.322;18.582;2022-11-15T18:07:13;7.44;85.96
69436;SHT31;56625;54.322;18.582;2022-11-15T18:09:40;7.48;85.94
69436;SHT31;56625;54.322;18.582;2022-11-15T18:12:09;7.47;85.80
69436;SHT31;56625;54.322;18.582;2022-11-15T18:14:37;7.42;85.71
69436;SHT31;56625;54.322;18.582;2022-11-15T18:17:04;7.36;85.75
69436;SHT31;56625;54.322;18.582;2022-11-15T18:19:32;7.31;85.80
69436;SHT31;56625;54.322;18.582;2022-11-15T18:21:58;7.27;85.81
69436;SHT31;56625;54.322;18.582;2022-11-15T18:24:30;7.22;85.86
69436;SHT31;56625;54.322;18.582;2022-11-15T18:27:03;7.16;85.98
69436;SHT31;56625;54.322;18.582;2022-11-15T18:30:04;7.18;86.41